sensor_id;sensor_type;location;lat;lon;timestamp;temperature;humidity
14893;DHT22;7538;53.626;9.906;2024-02-28T00:01:48;6.20;99.90
14893;DHT22;7538;53.626;9.906;2024-02-28T00:04:17;6.10;99.90
14893;DHT22;7538;53.626;9.906;2024-02-28T00:06:43;6.10;99.00
14893;DHT22;7538;53.626;9.906;2024-02-28T00:09:12;6.10;97.50
14893;DHT22;7538;53.626;9.906;2024-02-28T00:11:42;6.00;97.40
14893;DHT22;7538;53.626;9.906;2024-02-28T00:14:10;6.00;97.40
14893;DHT22;7538;53.626;9.906;2024-02-28T00:16:39;6.00;96.80
14893;DHT22;7538;53.626;9.906;2024-02-28T00:19:06;6.00;96.70
14893;DHT22;7538;53.626;9.906;2024-02-28T00:21:34;5.90;96.60
14893;DHT22;7538;53.626;9.906;2024-02-28T00:24:01;5.90;96.50
14893;DHT22;7538;53.626;9.906;2024-02-28T00:26:28;5.90;96.80
14893;DHT22;7538;53.626;9.906;2024-02-28T00:28:55;5.90;96.90
14893;DHT22;7538;53.626;9.906;2024-02-28T00:31:22;5.80;96.80
14893;DHT22;7538;53.626;9.906;2024-02-28T00:33:48;5.80;96.70
14893;DHT22;7538;53.626;9.906;2024-02-28T00:36:15;6.00;97.40
14893;DHT22;7538;53.626;9.906;2024-02-28T00:38:44;5.80;96.90
14893;DHT22;7538;53.626;9.906;2024-02-28T00:41:10;5.80;96.90
14893;DHT22;7538;53.626;9.906;2024-02-28T00:43:37;5.80;97.00
14893;DHT22;7538;53.626;9.906;2024-02-28T00:46:04;5.80;96.60
14893;DHT22;7538;53.626;9.906;2024-02-28T00:48:36;5.80;96.40
14893;DHT22;7538;53.626;9.906;2024-02-28T00:51:03;5.80;96.30
14893;DHT22;7538;53.626;9.906;2024-02-28T00:53:30;5.70;96.30
14893;DHT22;7538;53.626;9.906;2024-02-28T00:55:59;5.70;95.30
14893;DHT22;7538;53.626;9.906;2024-02-28T00:58:25;5.70;95.50
14893;DHT22;7538;53.626;9.906;2024-02-28T01:00:55;5.70;95.90
14893;DHT22;7538;53.626;9.906;2024-02-28T01:03:22;5.70;96.10
14893;DHT22;7538;53.626;9.906;2024-02-28T01:05:49;5.70;96.20
14893;DHT22;7538;53.626;9.906;2024-02-28T01:08:16;5.70;96.30
14893;DHT22;7538;53.626;9.906;2024-02-28T01:10:43;5.70;96.60
14893;DHT22;7538;53.626;9.906;2024-02-28T01:13:12;5.70;97.30
14893;DHT22;7538;53.626;9.906;2024-02-28T01:15:39;5.70;97.20
14893;DHT22;7538;53.626;9.906;2024-02-28T01:18:07;5.70;97.00
14893;DHT22;7538;53.626;9.906;2024-02-28T01:20:34;5.70;96.40
14893;DHT22;7538;53.626;9.906;2024-02-28T01:23:00;5.70;96.50
14893;DHT22;7538;53.626;9.906;2024-02-28T01:25:27;6.40;96.50
14893;DHT22;7538;53.626;9.906;2024-02-28T01:27:55;5.60;96.20
14893;DHT22;7538;53.626;9.906;2024-02-28T01:30:25;5.60;95.90
14893;DHT22;7538;53.626;9.906;2024-02-28T01:32:51;5.60;95.70
14893;DHT22;7538;53.626;9.906;2024-02-28T01:35:18;5.60;95.90
14893;DHT22;7538;53.626;9.906;2024-02-28T01:37:45;5.90;95.90
14893;DHT22;7538;53.626;9.906;2024-02-28T01:40:13;5.50;95.90
14893;DHT22;7538;53.626;9.906;2024-02-28T01:42:40;5.50;96.30
14893;DHT22;7538;53.626;9.906;2024-02-28T01:45:07;5.50;96.30
14893;DHT22;7538;53.626;9.906;2024-02-28T01:47:37;5.50;96.10
14893;DHT22;7538;53.626;9.906;2024-02-28T01:50:05;5.50;96.20
14893;DHT22;7538;53.626;9.906;2024-02-28T01:52:33;5.50;96.80
14893;DHT22;7538;53.626;9.906;2024-02-28T01:55:00;5.50;97.00
14893;DHT22;7538;53.626;9.906;2024-02-28T01:57:27;5.50;97.20
14893;DHT22;7538;53.626;9.906;2024-02-28T01:59:54;5.40;96.80
14893;DHT22;7538;53.626;9.906;2024-02-28T02:02:22;5.40;97.30
14893;DHT22;7538;53.626;9.906;2024-02-28T02:04:50;5.40;97.60
14893;DHT22;7538;53.626;9.906;2024-02-28T02:07:18;5.40;98.00
14893;DHT22;7538;53.626;9.906;2024-02-28T02:09:45;5.40;98.00
14893;DHT22;7538;53.626;9.906;2024-02-28T02:12:12;5.40;98.70
14893;DHT22;7538;53.626;9.906;2024-02-28T02:14:39;5.40;98.20
14893;DHT22;7538;53.626;9.906;2024-02-28T02:17:06;5.40;98.00
14893;DHT22;7538;53.626;9.906;2024-02-28T02:19:32;5.40;97.40
14893;DHT22;7538;53.626;9.906;2024-02-28T02:22:03;5.40;97.70
14893;DHT22;7538;53.626;9.906;2024-02-28T02:24:33;5.40;97.90
14893;DHT22;7538;53.626;9.906;2024-02-28T02:27:01;5.40;98.40
14893;DHT22;7538;53.626;9.906;2024-02-28T02:29:30;5.40;98.40
14893;DHT22;7538;53.626;9.906;2024-02-28T02:31:57;5.40;98.20
14893;DHT22;7538;53.626;9.906;2024-02-28T02:34:24;5.40;98.20
14893;DHT22;7538;53.626;9.906;2024-02-28T02:36:51;5.40;97.80
14893;DHT22;7538;53.626;9.906;2024-02-28T02:39:17;5.40;98.70
14893;DHT22;7538;53.626;9.906;2024-02-28T02:41:46;5.40;99.00
14893;DHT22;7538;53.626;9.906;2024-02-28T02:44:13;5.40;99.10
14893;DHT22;7538;53.626;9.906;2024-02-28T02:46:39;5.90;99.20
14893;DHT22;7538;53.626;9.906;2024-02-28T02:49:06;5.40;98.90
14893;DHT22;7538;53.626;9.906;2024-02-28T02:51:33;5.40;98.70
14893;DHT22;7538;53.626;9.906;2024-02-28T02:54:00;5.40;98.80
14893;DHT22;7538;53.626;9.906;2024-02-28T02:56:27;5.40;98.90
14893;DHT22;7538;53.626;9.906;2024-02-28T02:58:55;5.40;99.30
14893;DHT22;7538;53.626;9.906;2024-02-28T03:01:22;5.40;98.90
14893;DHT22;7538;53.626;9.906;2024-02-28T03:03:48;5.40;99.30
14893;DHT22;7538;53.626;9.906;2024-02-28T03:06:15;5.40;99.10
14893;DHT22;7538;53.626;9.906;2024-02-28T03:08:42;5.40;99.00
14893;DHT22;7538;53.626;9.906;2024-02-28T03:11:09;5.40;98.90
14893;DHT22;7538;53.626;9.906;2024-02-28T03:13:36;5.30;98.50
14893;DHT22;7538;53.626;9.906;2024-02-28T03:16:05;5.30;98.60
14893;DHT22;7538;53.626;9.906;2024-02-28T03:18:32;5.30;98.80
14893;DHT22;7538;53.626;9.906;2024-02-28T03:20:59;5.30;99.20
14893;DHT22;7538;53.626;9.906;2024-02-28T03:23:27;5.30;99.20
14893;DHT22;7538;53.626;9.906;2024-02-28T03:25:54;5.30;99.10
14893;DHT22;7538;53.626;9.906;2024-02-28T03:28:21;5.30;98.70
14893;DHT22;7538;53.626;9.906;2024-02-28T03:30:48;5.30;98.80
14893;DHT22;7538;53.626;9.906;2024-02-28T03:33:16;4.00;98.60
14893;DHT22;7538;53.626;9.906;2024-02-28T03:35:45;5.20;99.00
14893;DHT22;7538;53.626;9.906;2024-02-28T03:38:12;5.30;98.90
14893;DHT22;7538;53.626;9.906;2024-02-28T03:40:38;5.30;99.00
14893;DHT22;7538;53.626;9.906;2024-02-28T03:43:05;5.30;99.10
14893;DHT22;7538;53.626;9.906;2024-02-28T03:45:36;5.30;99.20
14893;DHT22;7538;53.626;9.906;2024-02-28T03:48:04;5.20;99.00
14893;DHT22;7538;53.626;9.906;2024-02-28T03:50:33;5.20;99.20
14893;DHT22;7538;53.626;9.906;2024-02-28T03:52:59;5.30;99.30
14893;DHT22;7538;53.626;9.906;2024-02-28T03:55:26;5.20;99.20
14893;DHT22;7538;53.626;9.906;2024-02-28T03:57:53;5.20;99.30
14893;DHT22;7538;53.626;9.906;2024-02-28T04:00:20;8.20;99.90
14893;DHT22;7538;53.626;9.906;2024-02-28T04:02:47;5.30;99.90
14893;DHT22;7538;53.626;9.906;2024-02-28T04:05:14;5.30;99.90
14893;DHT22;7538;53.626;9.906;2024-02-28T04:07:44;5.30;99.90
14893;DHT22;7538;53.626;9.906;2024-02-28T04:10:11;5.30;99.90
14893;DHT22;7538;53.626;9.906;2024-02-28T04:12:38;5.30;99.60
14893;DHT22;7538;53.626;9.906;2024-02-28T04:15:05;5.30;99.10
14893;DHT22;7538;53.626;9.906;2024-02-28T04:17:32;5.20;98.90
14893;DHT22;7538;53.626;9.906;2024-02-28T04:19:59;5.20;98.80
14893;DHT22;7538;53.626;9.906;2024-02-28T04:22:30;5.20;98.70
14893;DHT22;7538;53.626;9.906;2024-02-28T04:24:58;5.20;98.60
14893;DHT22;7538;53.626;9.906;2024-02-28T04:27:25;5.20;98.70
14893;DHT22;7538;53.626;9.906;2024-02-28T04:29:52;5.20;99.00
14893;DHT22;7538;53.626;9.906;2024-02-28T04:32:18;5.20;99.10
14893;DHT22;7538;53.626;9.906;2024-02-28T04:34:45;5.20;99.10
14893;DHT22;7538;53.626;9.906;2024-02-28T04:37:12;5.20;99.00
14893;DHT22;7538;53.626;9.906;2024-02-28T04:39:40;5.10;99.10
14893;DHT22;7538;53.626;9.906;2024-02-28T04:42:08;6.90;99.90
14893;DHT22;7538;53.626;9.906;2024-02-28T04:44:35;5.10;99.60
14893;DHT22;7538;53.626;9.906;2024-02-28T04:47:02;5.00;99.90
14893;DHT22;7538;53.626;9.906;2024-02-28T04:49:29;5.00;99.90
14893;DHT22;7538;53.626;9.906;2024-02-28T04:51:56;5.00;99.90
14893;DHT22;7538;53.626;9.906;2024-02-28T04:54:24;5.00;99.90
14893;DHT22;7538;53.626;9.906;2024-02-28T04:56:51;5.00;99.90
14893;DHT22;7538;53.626;9.906;2024-02-28T04:59:19;5.00;99.90
14893;DHT22;7538;53.626;9.906;2024-02-28T05:01:46;5.30;99.90
14893;DHT22;7538;53.626;9.906;2024-02-28T05:04:13;5.00;99.90
14893;DHT22;7538;53.626;9.906;2024-02-28T05:06:40;5.00;99.90
14893;DHT22;7538;53.626;9.906;2024-02-28T05:09:07;5.00;99.90
14893;DHT22;7538;53.626;9.906;2024-02-28T05:11:34;4.60;99.90
14893;DHT22;7538;53.626;9.906;2024-02-28T05:14:01;5.00;99.90
14893;DHT22;7538;53.626;9.906;2024-02-28T05:16:29;5.10;99.90
14893;DHT22;7538;53.626;9.906;2024-02-28T05:18:57;5.40;99.90
14893;DHT22;7538;53.626;9.906;2024-02-28T05:21:24;5.10;99.90
14893;DHT22;7538;53.626;9.906;2024-02-28T05:23:51;5.10;99.90
14893;DHT22;7538;53.626;9.906;2024-02-28T05:26:18;5.10;99.90
14893;DHT22;7538;53.626;9.906;2024-02-28T05:28:44;5.10;99.90
14893;DHT22;7538;53.626;9.906;2024-02-28T05:31:21;5.10;99.90
14893;DHT22;7538;53.626;9.906;2024-02-28T05:33:52;5.10;99.90
14893;DHT22;7538;53.626;9.906;2024-02-28T05:36:19;5.20;99.90
14893;DHT22;7538;53.626;9.906;2024-02-28T05:38:47;5.20;99.90
14893;DHT22;7538;53.626;9.906;2024-02-28T05:41:15;5.20;99.90
14893;DHT22;7538;53.626;9.906;2024-02-28T05:43:42;5.20;99.90
14893;DHT22;7538;53.626;9.906;2024-02-28T05:46:09;5.20;99.90
14893;DHT22;7538;53.626;9.906;2024-02-28T05:48:36;5.90;99.90
14893;DHT22;7538;53.626;9.906;2024-02-28T05:51:05;5.30;99.90
14893;DHT22;7538;53.626;9.906;2024-02-28T05:53:31;5.30;99.90
14893;DHT22;7538;53.626;9.906;2024-02-28T05:56:01;5.30;99.90
14893;DHT22;7538;53.626;9.906;2024-02-28T05:58:28;5.30;99.90
14893;DHT22;7538;53.626;9.906;2024-02-28T06:00:55;5.30;99.90
14893;DHT22;7538;53.626;9.906;2024-02-28T06:03:22;5.30;99.90
14893;DHT22;7538;53.626;9.906;2024-02-28T06:05:49;5.40;99.90
14893;DHT22;7538;53.626;9.906;2024-02-28T06:08:17;5.40;99.90
14893;DHT22;7538;53.626;9.906;2024-02-28T06:10:44;5.40;99.90
14893;DHT22;7538;53.626;9.906;2024-02-28T06:13:12;5.40;99.90
14893;DHT22;7538;53.626;9.906;2024-02-28T06:15:39;5.40;99.90
14893;DHT22;7538;53.626;9.906;2024-02-28T06:18:06;5.40;99.90
14893;DHT22;7538;53.626;9.906;2024-02-28T06:20:33;5.40;99.90
14893;DHT22;7538;53.626;9.906;2024-02-28T06:23:00;5.30;99.90
14893;DHT22;7538;53.626;9.906;2024-02-28T06:25:28;5.30;99.90
14893;DHT22;7538;53.626;9.906;2024-02-28T06:27:55;5.40;99.90
14893;DHT22;7538;53.626;9.906;2024-02-28T06:30:21;5.40;99.90
14893;DHT22;7538;53.626;9.906;2024-02-28T06:32:48;5.40;99.90
14893;DHT22;7538;53.626;9.906;2024-02-28T06:35:15;5.40;99.90
14893;DHT22;7538;53.626;9.906;2024-02-28T06:37:42;7.40;99.90
14893;DHT22;7538;53.626;9.906;2024-02-28T06:40:15;5.50;99.90
14893;DHT22;7538;53.626;9.906;2024-02-28T06:42:44;5.50;99.90
14893;DHT22;7538;53.626;9.906;2024-02-28T06:45:11;5.60;99.90
14893;DHT22;7538;53.626;9.906;2024-02-28T06:47:37;5.50;99.90
14893;DHT22;7538;53.626;9.906;2024-02-28T06:50:06;5.60;99.90
14893;DHT22;7538;53.626;9.906;2024-02-28T06:52:33;5.60;99.90
14893;DHT22;7538;53.626;9.906;2024-02-28T06:55:00;5.60;99.90
14893;DHT22;7538;53.626;9.906;2024-02-28T06:57:29;5.70;99.90
14893;DHT22;7538;53.626;9.906;2024-02-28T06:59:57;5.70;99.90
14893;DHT22;7538;53.626;9.906;2024-02-28T07:02:24;5.70;99.90
14893;DHT22;7538;53.626;9.906;2024-02-28T07:04:51;5.70;99.90
14893;DHT22;7538;53.626;9.906;2024-02-28T07:07:18;5.70;99.90
14893;DHT22;7538;53.626;9.906;2024-02-28T07:09:45;5.80;99.90
14893;DHT22;7538;53.626;9.906;2024-02-28T07:12:12;5.90;99.90
14893;DHT22;7538;53.626;9.906;2024-02-28T07:14:39;5.90;99.90
14893;DHT22;7538;53.626;9.906;2024-02-28T07:17:07;6.00;99.90
14893;DHT22;7538;53.626;9.906;2024-02-28T07:19:36;6.10;99.90
14893;DHT22;7538;53.626;9.906;2024-02-28T07:22:04;6.20;99.90
14893;DHT22;7538;53.626;9.906;2024-02-28T07:24:32;6.30;99.90
14893;DHT22;7538;53.626;9.906;2024-02-28T07:26:59;6.40;99.90
14893;DHT22;7538;53.626;9.906;2024-02-28T07:29:25;6.50;99.90
14893;DHT22;7538;53.626;9.906;2024-02-28T07:31:52;6.60;99.00
14893;DHT22;7538;53.626;9.906;2024-02-28T07:34:20;6.60;97.20
14893;DHT22;7538;53.626;9.906;2024-02-28T07:36:47;6.60;96.80
14893;DHT22;7538;53.626;9.906;2024-02-28T07:39:14;6.60;96.40
14893;DHT22;7538;53.626;9.906;2024-02-28T07:41:41;6.60;96.60
14893;DHT22;7538;53.626;9.906;2024-02-28T07:44:08;6.70;96.70
14893;DHT22;7538;53.626;9.906;2024-02-28T07:46:36;7.10;96.60
14893;DHT22;7538;53.626;9.906;2024-02-28T07:49:04;6.70;96.40
14893;DHT22;7538;53.626;9.906;2024-02-28T07:51:32;6.70;96.60
14893;DHT22;7538;53.626;9.906;2024-02-28T07:53:59;6.70;96.90
14893;DHT22;7538;53.626;9.906;2024-02-28T07:56:26;6.80;96.70
14893;DHT22;7538;53.626;9.906;2024-02-28T07:58:53;6.80;96.90
14893;DHT22;7538;53.626;9.906;2024-02-28T08:01:20;6.90;97.00
14893;DHT22;7538;53.626;9.906;2024-02-28T08:03:47;7.10;96.90
14893;DHT22;7538;53.626;9.906;2024-02-28T08:06:14;7.20;96.20
14893;DHT22;7538;53.626;9.906;2024-02-28T08:08:45;7.40;95.70
14893;DHT22;7538;53.626;9.906;2024-02-28T08:11:12;7.60;94.70
14893;DHT22;7538;53.626;9.906;2024-02-28T08:13:39;7.90;94.30
14893;DHT22;7538;53.626;9.906;2024-02-28T08:16:06;8.30;93.90
14893;DHT22;7538;53.626;9.906;2024-02-28T08:18:34;8.80;86.20
14893;DHT22;7538;53.626;9.906;2024-02-28T08:21:01;9.60;82.50
14893;DHT22;7538;53.626;9.906;2024-02-28T08:23:29;9.90;69.30
14893;DHT22;7538;53.626;9.906;2024-02-28T08:25:57;10.40;60.00
14893;DHT22;7538;53.626;9.906;2024-02-28T08:28:24;10.60;54.30
14893;DHT22;7538;53.626;9.906;2024-02-28T08:30:51;10.70;48.80
14893;DHT22;7538;53.626;9.906;2024-02-28T08:33:18;10.80;47.20
14893;DHT22;7538;53.626;9.906;2024-02-28T08:35:51;10.70;45.20
14893;DHT22;7538;53.626;9.906;2024-02-28T08:38:18;8.00;43.60
14893;DHT22;7538;53.626;9.906;2024-02-28T08:40:44;11.00;45.30
14893;DHT22;7538;53.626;9.906;2024-02-28T08:43:15;11.90;42.80
14893;DHT22;7538;53.626;9.906;2024-02-28T08:45:42;13.20;35.40
14893;DHT22;7538;53.626;9.906;2024-02-28T08:48:09;13.70;28.60
14893;DHT22;7538;53.626;9.906;2024-02-28T08:50:42;14.60;23.40
14893;DHT22;7538;53.626;9.906;2024-02-28T08:53:09;16.60;17.30
14893;DHT22;7538;53.626;9.906;2024-02-28T08:55:36;16.70;12.40
14893;DHT22;7538;53.626;9.906;2024-02-28T08:58:03;17.00;8.80
14893;DHT22;7538;53.626;9.906;2024-02-28T09:00:31;16.80;8.00
14893;DHT22;7538;53.626;9.906;2024-02-28T09:02:58;16.50;8.00
14893;DHT22;7538;53.626;9.906;2024-02-28T09:05:25;16.90;8.80
14893;DHT22;7538;53.626;9.906;2024-02-28T09:07:52;18.00;6.50
14893;DHT22;7538;53.626;9.906;2024-02-28T09:10:20;19.10;2.90
14893;DHT22;7538;53.626;9.906;2024-02-28T09:12:49;19.30;1.00
14893;DHT22;7538;53.626;9.906;2024-02-28T09:15:16;18.90;1.00
14893;DHT22;7538;53.626;9.906;2024-02-28T09:17:44;18.20;1.00
14893;DHT22;7538;53.626;9.906;2024-02-28T09:20:12;17.60;1.30
14893;DHT22;7538;53.626;9.906;2024-02-28T09:22:39;17.00;2.10
14893;DHT22;7538;53.626;9.906;2024-02-28T09:25:07;16.40;3.10
14893;DHT22;7538;53.626;9.906;2024-02-28T09:27:34;15.90;4.30
14893;DHT22;7538;53.626;9.906;2024-02-28T09:30:02;15.50;5.50
14893;DHT22;7538;53.626;9.906;2024-02-28T09:32:29;15.30;6.40
14893;DHT22;7538;53.626;9.906;2024-02-28T09:34:57;15.10;7.10
14893;DHT22;7538;53.626;9.906;2024-02-28T09:37:24;15.10;7.80
14893;DHT22;7538;53.626;9.906;2024-02-28T09:39:50;14.80;8.40
14893;DHT22;7538;53.626;9.906;2024-02-28T09:42:18;14.70;8.90
14893;DHT22;7538;53.626;9.906;2024-02-28T09:44:45;14.60;9.20
14893;DHT22;7538;53.626;9.906;2024-02-28T09:47:13;14.50;9.60
14893;DHT22;7538;53.626;9.906;2024-02-28T09:49:41;14.30;10.20
14893;DHT22;7538;53.626;9.906;2024-02-28T09:52:10;14.40;10.10
14893;DHT22;7538;53.626;9.906;2024-02-28T09:54:37;14.60;9.70
14893;DHT22;7538;53.626;9.906;2024-02-28T09:57:04;14.80;9.80
14893;DHT22;7538;53.626;9.906;2024-02-28T09:59:31;15.20;9.50
14893;DHT22;7538;53.626;9.906;2024-02-28T10:02:00;15.60;8.50
14893;DHT22;7538;53.626;9.906;2024-02-28T10:04:30;16.00;7.50
14893;DHT22;7538;53.626;9.906;2024-02-28T10:06:57;16.60;6.30
14893;DHT22;7538;53.626;9.906;2024-02-28T10:09:25;17.50;4.90
14893;DHT22;7538;53.626;9.906;2024-02-28T10:11:53;18.50;3.00
14893;DHT22;7538;53.626;9.906;2024-02-28T10:14:20;19.30;1.00
14893;DHT22;7538;53.626;9.906;2024-02-28T10:16:47;19.90;1.00
14893;DHT22;7538;53.626;9.906;2024-02-28T10:19:14;20.00;1.00
14893;DHT22;7538;53.626;9.906;2024-02-28T10:21:42;19.60;1.00
14893;DHT22;7538;53.626;9.906;2024-02-28T10:24:11;19.00;1.00
14893;DHT22;7538;53.626;9.906;2024-02-28T10:26:44;18.50;1.00
14893;DHT22;7538;53.626;9.906;2024-02-28T10:29:11;18.60;1.00
14893;DHT22;7538;53.626;9.906;2024-02-28T10:31:38;18.80;1.00
14893;DHT22;7538;53.626;9.906;2024-02-28T10:34:07;18.80;1.00
14893;DHT22;7538;53.626;9.906;2024-02-28T10:36:35;18.40;1.00
14893;DHT22;7538;53.626;9.906;2024-02-28T10:39:03;18.40;1.00
14893;DHT22;7538;53.626;9.906;2024-02-28T10:41:31;18.00;1.00
14893;DHT22;7538;53.626;9.906;2024-02-28T10:44:00;17.40;1.00
14893;DHT22;7538;53.626;9.906;2024-02-28T10:46:28;17.00;1.50
14893;DHT22;7538;53.626;9.906;2024-02-28T10:48:55;16.60;2.60
14893;DHT22;7538;53.626;9.906;2024-02-28T10:51:24;16.20;3.60
14893;DHT22;7538;53.626;9.906;2024-02-28T10:53:59;16.00;3.90
14893;DHT22;7538;53.626;9.906;2024-02-28T10:56:29;15.70;4.60
14893;DHT22;7538;53.626;9.906;2024-02-28T10:59:00;15.50;5.30
14893;DHT22;7538;53.626;9.906;2024-02-28T11:01:28;15.30;6.10
14893;DHT22;7538;53.626;9.906;2024-02-28T11:03:56;15.10;6.80
14893;DHT22;7538;53.626;9.906;2024-02-28T11:06:22;15.00;7.20
14893;DHT22;7538;53.626;9.906;2024-02-28T11:08:51;14.90;8.00
14893;DHT22;7538;53.626;9.906;2024-02-28T11:11:20;14.70;8.30
14893;DHT22;7538;53.626;9.906;2024-02-28T11:13:53;14.50;8.90
14893;DHT22;7538;53.626;9.906;2024-02-28T11:16:28;12.70;9.50
14893;DHT22;7538;53.626;9.906;2024-02-28T11:18:56;14.70;11.00
14893;DHT22;7538;53.626;9.906;2024-02-28T11:21:24;14.80;11.40
14893;DHT22;7538;53.626;9.906;2024-02-28T11:23:52;14.30;11.40
14893;DHT22;7538;53.626;9.906;2024-02-28T11:26:23;14.40;11.80
14893;DHT22;7538;53.626;9.906;2024-02-28T11:28:50;16.60;12.30
14893;DHT22;7538;53.626;9.906;2024-02-28T11:31:17;14.10;11.70
14893;DHT22;7538;53.626;9.906;2024-02-28T11:33:46;14.00;12.00
14893;DHT22;7538;53.626;9.906;2024-02-28T11:36:12;15.30;12.70
14893;DHT22;7538;53.626;9.906;2024-02-28T11:38:40;13.70;12.70
14893;DHT22;7538;53.626;9.906;2024-02-28T11:41:07;13.60;13.30
14893;DHT22;7538;53.626;9.906;2024-02-28T11:43:34;13.40;13.90
14893;DHT22;7538;53.626;9.906;2024-02-28T11:46:01;14.50;14.30
14893;DHT22;7538;53.626;9.906;2024-02-28T11:48:34;13.10;14.60
14893;DHT22;7538;53.626;9.906;2024-02-28T11:51:02;12.80;15.40
14893;DHT22;7538;53.626;9.906;2024-02-28T11:53:29;12.60;16.20
14893;DHT22;7538;53.626;9.906;2024-02-28T11:55:56;12.60;17.50
14893;DHT22;7538;53.626;9.906;2024-02-28T11:58:23;12.50;18.20
14893;DHT22;7538;53.626;9.906;2024-02-28T12:00:50;10.90;18.30
14893;DHT22;7538;53.626;9.906;2024-02-28T12:03:22;12.20;20.00
14893;DHT22;7538;53.626;9.906;2024-02-28T12:05:51;12.20;21.40
14893;DHT22;7538;53.626;9.906;2024-02-28T12:08:20;12.10;22.20
14893;DHT22;7538;53.626;9.906;2024-02-28T12:10:47;12.00;23.00
14893;DHT22;7538;53.626;9.906;2024-02-28T12:13:17;12.00;23.40
14893;DHT22;7538;53.626;9.906;2024-02-28T12:15:44;11.90;24.20
14893;DHT22;7538;53.626;9.906;2024-02-28T12:18:12;12.10;25.10
14893;DHT22;7538;53.626;9.906;2024-02-28T12:20:41;11.70;25.80
14893;DHT22;7538;53.626;9.906;2024-02-28T12:23:08;11.70;26.40
14893;DHT22;7538;53.626;9.906;2024-02-28T12:25:36;11.50;27.10
14893;DHT22;7538;53.626;9.906;2024-02-28T12:28:05;11.40;28.20
14893;DHT22;7538;53.626;9.906;2024-02-28T12:30:42;11.30;29.50
14893;DHT22;7538;53.626;9.906;2024-02-28T12:33:09;11.30;31.10
14893;DHT22;7538;53.626;9.906;2024-02-28T12:35:37;11.20;32.80
14893;DHT22;7538;53.626;9.906;2024-02-28T12:38:04;11.10;34.90
14893;DHT22;7538;53.626;9.906;2024-02-28T12:40:31;11.10;36.30
14893;DHT22;7538;53.626;9.906;2024-02-28T12:42:59;11.10;36.70
14893;DHT22;7538;53.626;9.906;2024-02-28T12:45:26;11.10;37.80
14893;DHT22;7538;53.626;9.906;2024-02-28T12:47:52;11.10;38.80
14893;DHT22;7538;53.626;9.906;2024-02-28T12:50:22;12.90;40.90
14893;DHT22;7538;53.626;9.906;2024-02-28T12:52:49;11.20;41.00
14893;DHT22;7538;53.626;9.906;2024-02-28T12:55:19;11.20;41.40
14893;DHT22;7538;53.626;9.906;2024-02-28T12:57:46;11.20;41.60
14893;DHT22;7538;53.626;9.906;2024-02-28T13:00:15;11.20;41.30
14893;DHT22;7538;53.626;9.906;2024-02-28T13:02:42;11.20;41.60
14893;DHT22;7538;53.626;9.906;2024-02-28T13:05:10;13.10;42.50
14893;DHT22;7538;53.626;9.906;2024-02-28T13:07:38;11.20;42.30
14893;DHT22;7538;53.626;9.906;2024-02-28T13:10:06;11.20;42.00
14893;DHT22;7538;53.626;9.906;2024-02-28T13:12:34;11.20;41.80
14893;DHT22;7538;53.626;9.906;2024-02-28T13:15:05;11.20;42.10
14893;DHT22;7538;53.626;9.906;2024-02-28T13:17:34;11.30;42.40
14893;DHT22;7538;53.626;9.906;2024-02-28T13:20:01;11.70;42.80
14893;DHT22;7538;53.626;9.906;2024-02-28T13:22:29;11.30;42.50
14893;DHT22;7538;53.626;9.906;2024-02-28T13:24:56;11.30;43.20
14893;DHT22;7538;53.626;9.906;2024-02-28T13:27:23;11.30;43.40
14893;DHT22;7538;53.626;9.906;2024-02-28T13:29:50;11.20;44.30
14893;DHT22;7538;53.626;9.906;2024-02-28T13:32:16;11.20;45.10
14893;DHT22;7538;53.626;9.906;2024-02-28T13:34:45;11.20;46.20
14893;DHT22;7538;53.626;9.906;2024-02-28T13:37:11;11.20;47.90
14893;DHT22;7538;53.626;9.906;2024-02-28T13:39:38;11.10;49.00
14893;DHT22;7538;53.626;9.906;2024-02-28T13:42:05;11.20;50.50
14893;DHT22;7538;53.626;9.906;2024-02-28T13:44:34;11.20;50.90
14893;DHT22;7538;53.626;9.906;2024-02-28T13:47:02;11.20;51.20
14893;DHT22;7538;53.626;9.906;2024-02-28T13:49:29;11.20;51.40
14893;DHT22;7538;53.626;9.906;2024-02-28T13:51:57;11.30;51.30
14893;DHT22;7538;53.626;9.906;2024-02-28T13:54:24;11.20;51.80
14893;DHT22;7538;53.626;9.906;2024-02-28T13:56:50;11.10;52.50
14893;DHT22;7538;53.626;9.906;2024-02-28T13:59:17;11.10;53.00
14893;DHT22;7538;53.626;9.906;2024-02-28T14:01:44;11.10;53.30
14893;DHT22;7538;53.626;9.906;2024-02-28T14:04:11;11.10;54.40
14893;DHT22;7538;53.626;9.906;2024-02-28T14:06:38;11.10;55.10
14893;DHT22;7538;53.626;9.906;2024-02-28T14:09:06;11.10;55.50
14893;DHT22;7538;53.626;9.906;2024-02-28T14:11:33;11.10;56.20
14893;DHT22;7538;53.626;9.906;2024-02-28T14:14:00;11.10;57.00
14893;DHT22;7538;53.626;9.906;2024-02-28T14:16:27;11.00;58.30
14893;DHT22;7538;53.626;9.906;2024-02-28T14:18:54;10.90;59.30
14893;DHT22;7538;53.626;9.906;2024-02-28T14:21:20;10.90;60.50
14893;DHT22;7538;53.626;9.906;2024-02-28T14:23:50;10.90;61.20
14893;DHT22;7538;53.626;9.906;2024-02-28T14:26:21;10.90;61.50
14893;DHT22;7538;53.626;9.906;2024-02-28T14:28:49;11.00;62.40
14893;DHT22;7538;53.626;9.906;2024-02-28T14:31:16;11.00;63.50
14893;DHT22;7538;53.626;9.906;2024-02-28T14:33:43;11.00;64.00
14893;DHT22;7538;53.626;9.906;2024-02-28T14:36:11;11.10;63.90
14893;DHT22;7538;53.626;9.906;2024-02-28T14:38:38;11.10;62.80
14893;DHT22;7538;53.626;9.906;2024-02-28T14:41:05;11.00;63.30
14893;DHT22;7538;53.626;9.906;2024-02-28T14:43:34;11.10;63.90
14893;DHT22;7538;53.626;9.906;2024-02-28T14:46:01;10.90;64.00
14893;DHT22;7538;53.626;9.906;2024-02-28T14:48:29;10.80;65.10
14893;DHT22;7538;53.626;9.906;2024-02-28T14:50:56;10.70;66.60
14893;DHT22;7538;53.626;9.906;2024-02-28T14:53:23;10.70;67.20
14893;DHT22;7538;53.626;9.906;2024-02-28T14:55:50;10.60;68.50
14893;DHT22;7538;53.626;9.906;2024-02-28T14:58:17;10.50;70.10
14893;DHT22;7538;53.626;9.906;2024-02-28T15:00:45;10.40;71.70
14893;DHT22;7538;53.626;9.906;2024-02-28T15:03:14;10.40;73.40
14893;DHT22;7538;53.626;9.906;2024-02-28T15:05:41;10.30;74.60
14893;DHT22;7538;53.626;9.906;2024-02-28T15:08:10;10.30;76.10
14893;DHT22;7538;53.626;9.906;2024-02-28T15:10:37;10.30;77.40
14893;DHT22;7538;53.626;9.906;2024-02-28T15:13:04;10.10;78.50
14893;DHT22;7538;53.626;9.906;2024-02-28T15:15:31;10.30;79.80
14893;DHT22;7538;53.626;9.906;2024-02-28T15:18:00;10.30;80.60
14893;DHT22;7538;53.626;9.906;2024-02-28T15:20:27;10.20;81.00
14893;DHT22;7538;53.626;9.906;2024-02-28T15:22:54;10.30;81.00
14893;DHT22;7538;53.626;9.906;2024-02-28T15:25:21;10.10;82.30
14893;DHT22;7538;53.626;9.906;2024-02-28T15:27:48;10.10;83.70
14893;DHT22;7538;53.626;9.906;2024-02-28T15:30:15;10.10;84.60
14893;DHT22;7538;53.626;9.906;2024-02-28T15:32:41;10.00;85.20
14893;DHT22;7538;53.626;9.906;2024-02-28T15:35:10;10.00;85.70
14893;DHT22;7538;53.626;9.906;2024-02-28T15:37:37;10.00;86.40
14893;DHT22;7538;53.626;9.906;2024-02-28T15:40:05;10.00;88.20
14893;DHT22;7538;53.626;9.906;2024-02-28T15:42:32;10.00;89.90
14893;DHT22;7538;53.626;9.906;2024-02-28T15:44:59;10.00;90.30
14893;DHT22;7538;53.626;9.906;2024-02-28T15:47:28;9.90;90.70
14893;DHT22;7538;53.626;9.906;2024-02-28T15:49:55;9.90;91.30
14893;DHT22;7538;53.626;9.906;2024-02-28T15:52:24;9.90;91.70
14893;DHT22;7538;53.626;9.906;2024-02-28T15:54:54;9.90;92.10
14893;DHT22;7538;53.626;9.906;2024-02-28T15:57:20;9.90;92.10
14893;DHT22;7538;53.626;9.906;2024-02-28T15:59:47;9.80;92.50